Time;durP1;ratioP1;P1;durP2;ratioP2;P2;SDS_P1;SDS_P2;PMS_P1;PMS_P2;Temp;Humidity;BMP_temperature;BMP_pressure;BME280_temperature;BME280_humidity;BME280_pressure;Samples;Min_cycle;Max_cycle;Signal;HPM_P1;HPM_P2
2023/04/23 00:02:10;;;;;;;;;;;;;;;15.72;100.00;99509.28;5071966;28;19930;-61
2023/04/23 00:04:36;;;;;;;;;;;;;;;15.69;100.00;99512.16;5069739;28;19967;-61
2023/04/23 00:07:02;;;;;;;;;;;;;;;15.68;100.00;99510.41;5069877;28;20321;-60
2023/04/23 00:09:29;;;;;;;;;;;;;;;15.61;100.00;99503.72;5071799;28;19913;-57
2023/04/23 00:11:55;;;;;;;;;;;;;;;15.58;100.00;99503.91;5070081;28;19917;-58
2023/04/23 00:14:20;;;;;;;;;;;;;;;15.47;100.00;99514.41;5069829;28;19943;-57
2023/04/23 00:16:45;;;;;;;;;;;;;;;15.45;100.00;99510.97;5068696;28;19924;-57
2023/04/23 00:19:11;;;;;;;;;;;;;;;15.38;100.00;99517.63;5069351;28;20015;-57
2023/04/23 00:21:36;;;;;;;;;;;;;;;15.37;100.00;99515.88;5055965;28;19917;-56
2023/04/23 00:24:01;;;;;;;;;;;;;;;15.37;100.00;99518.56;5064169;28;19916;-57
2023/04/23 00:26:27;;;;;;;;;;;;;;;15.39;100.00;99522.06;5069407;28;20102;-57
2023/04/23 00:28:52;;;;;;;;;;;;;;;15.33;100.00;99525.09;5068625;28;19916;-57
2023/04/23 00:31:18;;;;;;;;;;;;;;;15.30;100.00;99519.91;5068499;28;20455;-56
2023/04/23 00:33:43;;;;;;;;;;;;;;;15.24;100.00;99522.94;5068445;28;19916;-58
2023/04/23 00:36:08;;;;;;;;;;;;;;;15.29;100.00;99518.16;5067940;28;19916;-57
2023/04/23 00:38:34;;;;;;;;;;;;;;;15.24;100.00;99527.41;5069243;28;20007;-57
2023/04/23 00:40:59;;;;;;;;;;;;;;;15.26;100.00;99525.50;5068756;28;20379;-57
2023/04/23 00:43:25;;;;;;;;;;;;;;;15.26;100.00;99526.38;5069296;28;19931;-57
2023/04/23 00:45:50;;;;;;;;;;;;;;;15.16;100.00;99524.34;5069314;28;19919;-57
2023/04/23 00:48:15;;;;;;;;;;;;;;;15.14;100.00;99521.75;5067715;28;19920;-57
2023/04/23 00:50:41;;;;;;;;;;;;;;;15.16;100.00;99525.22;5069184;28;20426;-57
2023/04/23 00:53:06;;;;;;;;;;;;;;;15.09;100.00;99523.84;5067715;28;19942;-56
2023/04/23 00:55:31;;;;;;;;;;;;;;;15.15;100.00;99518.13;5069348;28;19921;-56
2023/04/23 00:57:57;;;;;;;;;;;;;;;15.18;100.00;99523.31;5070309;28;19920;-56
2023/04/23 01:00:22;;;;;;;;;;;;;;;15.10;100.00;99520.22;5088109;28;20403;-56
2023/04/23 01:02:49;;;;;;;;;;;;;;;15.06;100.00;99524.00;5095648;28;19978;-56
2023/04/23 01:05:15;;;;;;;;;;;;;;;14.94;100.00;99524.72;5093014;28;20379;-56
2023/04/23 01:07:42;;;;;;;;;;;;;;;14.91;100.00;99522.22;5094027;28;19969;-56
2023/04/23 01:10:08;;;;;;;;;;;;;;;14.81;100.00;99518.34;5092303;28;19923;-56
2023/04/23 01:12:33;;;;;;;;;;;;;;;14.77;100.00;99513.28;5092471;28;20280;-56
2023/04/23 01:14:59;;;;;;;;;;;;;;;14.73;100.00;99509.91;5093099;28;19923;-56
2023/04/23 01:17:25;;;;;;;;;;;;;;;14.70;100.00;99512.75;5092178;28;19993;-56
2023/04/23 01:19:51;;;;;;;;;;;;;;;14.72;100.00;99521.56;5093191;28;19973;-56
2023/04/23 01:22:16;;;;;;;;;;;;;;;14.82;100.00;99530.81;5092384;28;20345;-56
2023/04/23 01:24:41;;;;;;;;;;;;;;;14.78;100.00;99525.72;5092852;28;19925;-56
2023/04/23 01:27:07;;;;;;;;;;;;;;;14.76;100.00;99532.97;5095545;28;19916;-56
2023/04/23 01:29:33;;;;;;;;;;;;;;;14.78;100.00;99533.75;5091641;28;19916;-56
2023/04/23 01:31:59;;;;;;;;;;;;;;;14.72;100.00;99534.97;5091339;28;20736;-56
2023/04/23 01:34:24;;;;;;;;;;;;;;;14.70;100.00;99541.34;5091849;28;20010;-56
2023/04/23 01:36:50;;;;;;;;;;;;;;;14.66;100.00;99529.97;5092019;28;20361;-56
2023/04/23 01:39:16;;;;;;;;;;;;;;;14.62;100.00;99533.75;5091755;28;19913;-56
2023/04/23 01:41:42;;;;;;;;;;;;;;;14.73;100.00;99535.84;5091081;28;20347;-55
2023/04/23 01:44:07;;;;;;;;;;;;;;;14.62;100.00;99528.41;5092244;28;19964;-55
2023/04/23 01:46:32;;;;;;;;;;;;;;;14.67;100.00;99531.69;5092762;28;20333;-55
2023/04/23 01:48:58;;;;;;;;;;;;;;;14.65;100.00;99532.69;5092133;28;19927;-55
2023/04/23 01:51:24;;;;;;;;;;;;;;;14.60;100.00;99524.94;5092177;28;20003;-55
2023/04/23 01:53:49;;;;;;;;;;;;;;;14.63;100.00;99526.59;5091510;28;20058;-55
2023/04/23 01:56:15;;;;;;;;;;;;;;;14.64;100.00;99533.66;5090657;28;20015;-55
2023/04/23 01:58:40;;;;;;;;;;;;;;;14.64;100.00;99534.53;5091611;28;20455;-55
2023/04/23 02:01:05;;;;;;;;;;;;;;;14.63;100.00;99537.31;5090553;28;20399;-55
2023/04/23 02:03:32;;;;;;;;;;;;;;;14.64;100.00;99534.53;5091528;28;19973;-56
2023/04/23 02:05:58;;;;;;;;;;;;;;;14.71;100.00;99533.22;5091477;28;20387;-55
2023/04/23 02:08:23;;;;;;;;;;;;;;;14.77;100.00;99537.38;5091012;28;19962;-55
2023/04/23 02:10:49;;;;;;;;;;;;;;;14.73;100.00;99536.66;5073193;28;19916;-55
2023/04/23 02:13:14;;;;;;;;;;;;;;;14.72;100.00;99543.00;5071784;28;19974;-55
2023/04/23 02:15:41;;;;;;;;;;;;;;;14.49;100.00;99497.94;5073810;28;19942;-55
2023/04/23 02:18:07;;;;;;;;;;;;;;;14.69;100.00;99532.47;5091834;28;20010;-56
2023/04/23 02:20:32;;;;;;;;;;;;;;;14.72;100.00;99532.28;5092026;28;20085;-55
2023/04/23 02:22:57;;;;;;;;;;;;;;;14.74;100.00;99543.78;5090014;28;20203;-55
2023/04/23 02:25:23;;;;;;;;;;;;;;;14.77;100.00;99532.00;5090079;28;19931;-56
2023/04/23 02:27:48;;;;;;;;;;;;;;;14.74;100.00;99527.72;5090986;28;19920;-56
2023/04/23 02:30:13;;;;;;;;;;;;;;;14.67;100.00;99529.00;5090645;28;20291;-55
2023/04/23 02:32:39;;;;;;;;;;;;;;;14.72;100.00;99528.72;5090879;28;19923;-56
2023/04/23 02:35:05;;;;;;;;;;;;;;;14.79;100.00;99524.75;5090233;28;19920;-56
2023/04/23 02:37:34;;;;;;;;;;;;;;;14.82;100.00;99525.44;5091204;28;19912;-56
2023/04/23 02:39:59;;;;;;;;;;;;;;;14.77;100.00;99516.81;5090327;28;19926;-56
2023/04/23 02:42:24;;;;;;;;;;;;;;;14.72;100.00;99512.66;5091485;28;20526;-55
2023/04/23 02:44:50;;;;;;;;;;;;;;;14.70;100.00;99520.78;5091443;28;20433;-55
2023/04/23 02:47:16;;;;;;;;;;;;;;;14.68;100.00;99516.50;5091511;28;19916;-55
2023/04/23 02:49:41;;;;;;;;;;;;;;;14.67;100.00;99526.31;5090228;28;20600;-55
2023/04/23 02:52:06;;;;;;;;;;;;;;;14.68;100.00;99528.03;5091405;28;19915;-55
2023/04/23 02:54:31;;;;;;;;;;;;;;;14.68;100.00;99530.72;5093849;28;20233;-55
2023/04/23 02:56:57;;;;;;;;;;;;;;;14.71;100.00;99533.22;5091129;28;19923;-55
2023/04/23 02:59:23;;;;;;;;;;;;;;;14.72;100.00;99536.75;5087731;28;19946;-55
2023/04/23 03:01:48;;;;;;;;;;;;;;;14.78;100.00;99529.25;5091133;28;20010;-55
2023/04/23 03:04:13;;;;;;;;;;;;;;;14.82;100.00;99536.16;5082914;28;19959;-56
2023/04/23 03:06:38;;;;;;;;;;;;;;;14.89;100.00;99525.97;5100064;28;20003;-56
2023/04/23 03:09:04;;;;;;;;;;;;;;;14.87;100.00;99523.38;5090770;28;19928;-55
2023/04/23 03:11:29;;;;;;;;;;;;;;;14.84;100.00;99525.34;5090889;28;19951;-55
2023/04/23 03:13:54;;;;;;;;;;;;;;;14.77;100.00;99532.88;5090971;28;19916;-55
2023/04/23 03:16:20;;;;;;;;;;;;;;;14.72;100.00;99529.59;5090068;28;20367;-56
2023/04/23 03:18:45;;;;;;;;;;;;;;;14.77;100.00;99530.22;5090556;28;19930;-55
2023/04/23 03:21:10;;;;;;;;;;;;;;;14.82;100.00;99530.81;5090061;28;19943;-55
2023/04/23 03:23:36;;;;;;;;;;;;;;;14.87;100.00;99531.41;5090187;28;19912;-56
2023/04/23 03:26:01;;;;;;;;;;;;;;;14.83;100.00;99524.50;5088217;28;19958;-55
2023/04/23 03:28:26;;;;;;;;;;;;;;;14.87;100.00;99535.88;5090014;28;20329;-55
2023/04/23 03:30:52;;;;;;;;;;;;;;;14.83;100.00;99532.53;5089194;28;19916;-56
2023/04/23 03:33:17;;;;;;;;;;;;;;;14.82;100.00;99537.97;5090606;28;19986;-55
2023/04/23 03:35:42;;;;;;;;;;;;;;;14.77;100.00;99538.25;5089089;28;19916;-55
2023/04/23 03:38:07;;;;;;;;;;;;;;;14.86;100.00;99536.84;5089560;28;20278;-55
2023/04/23 03:40:33;;;;;;;;;;;;;;;14.89;100.00;99534.84;5090311;28;20291;-56
2023/04/23 03:42:58;;;;;;;;;;;;;;;14.93;100.00;99539.06;5090009;28;19916;-56
2023/04/23 03:45:24;;;;;;;;;;;;;;;14.89;100.00;99542.88;5090341;28;19976;-55
2023/04/23 03:47:49;;;;;;;;;;;;;;;14.85;100.00;99546.69;5088745;28;19916;-56
2023/04/23 03:50:16;;;;;;;;;;;;;;;14.88;100.00;99546.50;5090252;28;20397;-56
2023/04/23 03:52:41;;;;;;;;;;;;;;;14.92;100.00;99558.78;5090330;28;19955;-56
2023/04/23 03:55:07;;;;;;;;;;;;;;;14.94;100.00;99547.97;5089427;28;19958;-55
2023/04/23 03:57:32;;;;;;;;;;;;;;;14.96;100.00;99554.97;5090128;28;19924;-55
2023/04/23 03:59:58;;;;;;;;;;;;;;;14.96;100.00;99552.28;5089371;28;19959;-55
2023/04/23 04:02:23;;;;;;;;;;;;;;;14.96;100.00;99544.25;5090601;28;19965;-56
2023/04/23 04:04:50;;;;;;;;;;;;;;;14.93;100.00;99544.44;5090060;28;20406;-56
2023/04/23 04:07:15;;;;;;;;;;;;;;;14.93;100.00;99547.09;5089113;28;19986;-56
2023/04/23 04:09:41;;;;;;;;;;;;;;;14.90;100.00;99541.94;5090385;28;20532;-55
2023/04/23 04:12:06;;;;;;;;;;;;;;;14.88;100.00;99546.50;5090259;28;19916;-55
2023/04/23 04:14:32;;;;;;;;;;;;;;;14.91;100.00;99540.13;5089222;28;19923;-55
2023/04/23 04:16:57;;;;;;;;;;;;;;;14.92;100.00;99540.03;5089962;28;19916;-55
2023/04/23 04:19:23;;;;;;;;;;;;;;;14.91;100.00;99535.63;5090093;28;19961;-55
2023/04/23 04:21:48;;;;;;;;;;;;;;;14.88;100.00;99529.56;5088982;28;20312;-55
2023/04/23 04:24:14;;;;;;;;;;;;;;;14.82;100.00;99532.63;5090031;28;20319;-55
2023/04/23 04:26:40;;;;;;;;;;;;;;;14.77;100.00;99527.53;5089118;28;19920;-55
2023/04/23 04:29:05;;;;;;;;;;;;;;;14.71;100.00;99522.50;5090039;28;20650;-55
2023/04/23 04:31:31;;;;;;;;;;;;;;;14.63;100.00;99527.44;5090017;28;19947;-55
2023/04/23 04:33:56;;;;;;;;;;;;;;;14.63;100.00;99524.75;5091788;28;19967;-55
2023/04/23 04:36:24;;;;;;;;;;;;;;;14.63;100.00;99526.59;5090276;28;19923;-55
2023/04/23 04:38:50;;;;;;;;;;;;;;;14.57;100.00;99525.13;5088968;28;19976;-55
2023/04/23 04:41:16;;;;;;;;;;;;;;;14.52;100.00;99517.34;5092867;28;20159;-55
2023/04/23 04:43:42;;;;;;;;;;;;;;;14.50;100.00;99518.38;5094065;28;20433;-55
2023/04/23 04:46:10;;;;;;;;;;;;;;;14.47;100.00;99521.22;5095452;28;19936;-55
2023/04/23 04:48:35;;;;;;;;;;;;;;;14.48;100.00;99526.50;5073633;28;20498;-55
2023/04/23 04:51:01;;;;;;;;;;;;;;;14.44;100.00;99527.63;5090708;28;20026;-55
2023/04/23 04:53:26;;;;;;;;;;;;;;;14.41;100.00;99532.28;5095633;28;20370;-55
2023/04/23 04:55:51;;;;;;;;;;;;;;;14.43;100.00;99538.41;5112855;28;19964;-55
2023/04/23 04:58:16;;;;;;;;;;;;;;;14.41;100.00;99532.28;5093819;28;20340;-55
2023/04/23 05:00:42;;;;;;;;;;;;;;;14.39;100.00;99524.34;5092642;28;20002;-55
2023/04/23 05:03:07;;;;;;;;;;;;;;;14.34;100.00;99522.88;5096156;28;20379;-55
2023/04/23 05:05:32;;;;;;;;;;;;;;;14.31;100.00;99523.91;5094591;28;19920;-55
2023/04/23 05:08:00;;;;;;;;;;;;;;;14.34;100.00;99528.22;5088325;28;19920;-55
2023/04/23 05:10:26;;;;;;;;;;;;;;;14.37;100.00;99522.69;5093793;28;19920;-55
2023/04/23 05:12:51;;;;;;;;;;;;;;;14.33;100.00;99531.84;5093437;28;19916;-55
2023/04/23 05:15:17;;;;;;;;;;;;;;;14.33;100.00;99531.84;5093413;28;19920;-55
2023/04/23 05:17:42;;;;;;;;;;;;;;;14.38;100.00;99527.09;5092198;28;19924;-55
2023/04/23 05:20:09;;;;;;;;;;;;;;;14.43;100.00;99522.38;5093240;28;20379;-55
2023/04/23 05:22:38;;;;;;;;;;;;;;;14.50;100.00;99523.72;5092978;28;19923;-55
2023/04/23 05:25:04;;;;;;;;;;;;;;;14.46;100.00;99522.19;5091968;28;19920;-55
2023/04/23 05:27:29;;;;;;;;;;;;;;;14.35;100.00;99521.91;5095737;28;19970;-55
2023/04/23 05:29:54;;;;;;;;;;;;;;;14.35;100.00;99519.22;5092802;28;20299;-55
2023/04/23 05:32:20;;;;;;;;;;;;;;;14.44;100.00;99518.72;5092089;28;20034;-56
2023/04/23 05:34:45;;;;;;;;;;;;;;;14.58;100.00;99526.81;5092612;28;19924;-56
2023/04/23 05:37:11;;;;;;;;;;;;;;;14.63;100.00;99519.41;5091521;28;19931;-55
2023/04/23 05:39:36;;;;;;;;;;;;;;;14.68;100.00;99521.84;5092828;28;20376;-56
2023/04/23 05:42:01;;;;;;;;;;;;;;;14.81;100.00;99529.06;5092856;28;19916;-55
2023/04/23 05:44:27;;;;;;;;;;;;;;;14.86;100.00;99526.97;5090655;28;19943;-56
2023/04/23 05:46:53;;;;;;;;;;;;;;;15.09;100.00;99528.34;5092144;28;19916;-56
2023/04/23 05:49:18;;;;;;;;;;;;;;;15.52;100.00;99517.69;5091321;28;19920;-55
2023/04/23 05:51:43;;;;;;;;;;;;;;;16.22;100.00;99519.56;5092349;28;19982;-56
2023/04/23 05:54:08;;;;;;;;;;;;;;;17.08;100.00;99513.91;5091721;28;19916;-56
2023/04/23 05:56:34;;;;;;;;;;;;;;;17.42;94.67;99516.03;5092285;28;20426;-56
2023/04/23 05:58:59;;;;;;;;;;;;;;;17.31;89.68;99520.41;5092217;28;20011;-55
2023/04/23 06:01:24;;;;;;;;;;;;;;;16.98;88.59;99529.75;5091391;28;19943;-56
2023/04/23 06:03:49;;;;;;;;;;;;;;;16.62;91.33;99526.78;5092266;28;19957;-56
2023/04/23 06:06:15;;;;;;;;;;;;;;;16.39;91.90;99521.16;5091095;28;19986;-56
2023/04/23 06:08:40;;;;;;;;;;;;;;;16.00;94.18;99518.28;5092297;28;19923;-56
2023/04/23 06:11:05;;;;;;;;;;;;;;;15.85;95.24;99519.28;5092182;28;19999;-56
2023/04/23 06:13:31;;;;;;;;;;;;;;;15.59;96.93;99516.38;5090881;28;20021;-55
2023/04/23 06:15:56;;;;;;;;;;;;;;;15.41;97.53;99514.78;5084250;28;20510;-55
2023/04/23 06:18:22;;;;;;;;;;;;;;;15.44;98.62;99525.31;5091225;28;20414;-55
2023/04/23 06:20:47;;;;;;;;;;;;;;;15.39;99.63;99516.69;5092177;28;19916;-55
2023/04/23 06:23:13;;;;;;;;;;;;;;;15.70;99.58;99516.56;5090859;28;19920;-55
2023/04/23 06:25:38;;;;;;;;;;;;;;;16.53;97.34;99515.78;5092018;28;19955;-56
2023/04/23 06:28:03;;;;;;;;;;;;;;;17.22;93.50;99503.06;5091756;28;20255;-55
2023/04/23 06:30:28;;;;;;;;;;;;;;;17.31;88.13;99512.34;5087683;28;19913;-55
2023/04/23 06:32:54;;;;;;;;;;;;;;;17.03;88.08;99507.97;5089957;28;19923;-56
2023/04/23 06:35:19;;;;;;;;;;;;;;;16.87;87.37;99515.31;5091799;28;19916;-55
2023/04/23 06:37:44;;;;;;;;;;;;;;;16.99;87.73;99496.56;5090640;28;19920;-56
2023/04/23 06:40:10;;;;;;;;;;;;;;;17.33;88.95;99499.66;5091750;28;20327;-55
2023/04/23 06:42:35;;;;;;;;;;;;;;;17.54;87.19;99496.41;5093678;28;20375;-55
2023/04/23 06:45:03;;;;;;;;;;;;;;;17.85;84.88;99493.28;5090745;28;19920;-56
2023/04/23 06:47:29;;;;;;;;;;;;;;;18.29;84.20;99490.97;5082297;28;19995;-56
2023/04/23 06:49:54;;;;;;;;;;;;;;;18.51;80.68;99492.13;5089154;28;20011;-56
2023/04/23 06:52:20;;;;;;;;;;;;;;;18.60;80.95;99494.16;5091318;28;19915;-56
2023/04/23 06:54:45;;;;;;;;;;;;;;;18.71;78.60;99492.41;5091393;28;19920;-56
2023/04/23 06:57:10;;;;;;;;;;;;;;;18.82;77.80;99486.19;5090294;28;19930;-56
2023/04/23 06:59:35;;;;;;;;;;;;;;;18.67;74.70;99492.72;5089877;28;19928;-56
2023/04/23 07:02:01;;;;;;;;;;;;;;;18.64;75.67;99482.19;5090234;28;20509;-56
2023/04/23 07:04:26;;;;;;;;;;;;;;;18.78;75.74;99480.19;5091451;28;19927;-56
2023/04/23 07:06:51;;;;;;;;;;;;;;;18.85;76.05;99485.97;5109610;28;20583;-56
2023/04/23 07:09:17;;;;;;;;;;;;;;;19.27;75.23;99482.75;5109226;28;19911;-56
2023/04/23 07:11:42;;;;;;;;;;;;;;;19.60;73.91;99483.72;5090789;28;19916;-56
2023/04/23 07:14:08;;;;;;;;;;;;;;;19.78;71.84;99478.75;5090096;28;20539;-56
2023/04/23 07:16:33;;;;;;;;;;;;;;;19.75;70.68;99484.38;5090106;28;19916;-56
2023/04/23 07:19:00;;;;;;;;;;;;;;;19.89;70.83;99478.75;5088484;28;20429;-56
2023/04/23 07:21:26;;;;;;;;;;;;;;;19.74;68.56;99482.66;5089895;28;19916;-56
2023/04/23 07:23:51;;;;;;;;;;;;;;;19.90;69.13;99477.75;5090680;28;19919;-56
2023/04/23 07:26:17;;;;;;;;;;;;;;;19.78;69.35;99475.19;5089892;28;19916;-56
2023/04/23 07:28:42;;;;;;;;;;;;;;;20.31;69.21;99474.50;5093206;28;19919;-57
2023/04/23 07:31:08;;;;;;;;;;;;;;;20.33;66.96;99473.38;5089810;28;19916;-56
2023/04/23 07:33:33;;;;;;;;;;;;;;;20.93;67.24;99470.19;5088213;28;19920;-57
2023/04/23 07:35:58;;;;;;;;;;;;;;;20.96;64.05;99459.13;5088319;28;19920;-57
2023/04/23 07:38:23;;;;;;;;;;;;;;;20.97;62.64;99455.47;5087831;28;20484;-57
2023/04/23 07:40:49;;;;;;;;;;;;;;;21.09;63.07;99454.41;5089070;28;20046;-57
2023/04/23 07:43:15;;;;;;;;;;;;;;;21.48;62.09;99448.31;5088313;28;19965;-57
2023/04/23 07:45:41;;;;;;;;;;;;;;;21.82;60.57;99455.28;5089486;28;19916;-57
2023/04/23 07:48:06;;;;;;;;;;;;;;;22.20;58.81;99446.47;5088551;28;19945;-57
2023/04/23 07:50:31;;;;;;;;;;;;;;;22.45;58.18;99448.72;5087993;28;19946;-54
2023/04/23 07:52:57;;;;;;;;;;;;;;;22.80;54.48;99449.09;5077895;28;20279;-54
2023/04/23 07:55:22;;;;;;;;;;;;;;;22.86;56.86;99450.38;5084682;28;20406;-55
2023/04/23 07:57:47;;;;;;;;;;;;;;;23.17;54.91;99447.41;5088599;28;19916;-55
2023/04/23 08:00:13;;;;;;;;;;;;;;;23.41;54.38;99439.72;5087511;28;19966;-56
2023/04/23 08:02:38;;;;;;;;;;;;;;;23.29;53.01;99440.03;5090194;28;19981;-56
2023/04/23 08:05:04;;;;;;;;;;;;;;;23.28;53.88;99439.16;5089500;28;20435;-56
2023/04/23 08:07:29;;;;;;;;;;;;;;;23.74;51.65;99432.94;5089741;28;19919;-56
2023/04/23 08:09:54;;;;;;;;;;;;;;;23.93;53.29;99426.59;5089307;28;19916;-55
2023/04/23 08:12:20;;;;;;;;;;;;;;;24.27;53.58;99427.75;5090330;28;19974;-58
2023/04/23 08:14:46;;;;;;;;;;;;;;;24.10;49.66;99425.84;5071701;28;20458;-56
2023/04/23 08:17:11;;;;;;;;;;;;;;;23.01;49.91;99430.00;5088795;28;19916;-56
2023/04/23 08:19:36;;;;;;;;;;;;;;;22.54;53.78;99418.06;5087927;28;19916;-56
2023/04/23 08:22:02;;;;;;;;;;;;;;;22.63;51.80;99419.97;5088969;28;19916;-56
2023/04/23 08:24:27;;;;;;;;;;;;;;;22.74;53.94;99411.69;5087584;28;19920;-56
2023/04/23 08:26:52;;;;;;;;;;;;;;;23.16;52.44;99413.13;5088785;28;19965;-56
2023/04/23 08:29:17;;;;;;;;;;;;;;;23.24;51.48;99410.53;5088890;28;19912;-56
2023/04/23 08:31:43;;;;;;;;;;;;;;;22.83;51.28;99405.41;5089308;28;19916;-56
2023/04/23 08:34:08;;;;;;;;;;;;;;;21.83;54.17;99407.38;5089808;28;19927;-56
2023/04/23 08:36:33;;;;;;;;;;;;;;;21.73;56.94;99401.03;5089525;28;19916;-57
2023/04/23 08:38:59;;;;;;;;;;;;;;;21.69;56.45;99402.28;5089737;28;19931;-55
2023/04/23 08:41:27;;;;;;;;;;;;;;;21.32;58.76;99406.47;5089859;28;20003;-56
2023/04/23 08:44:11;;;;;;;;;;;;;;;21.50;58.94;99394.91;5106695;28;19911;-56
2023/04/23 08:46:39;;;;;;;;;;;;;;;21.38;58.05;99405.97;5094185;28;19924;-56
2023/04/23 08:49:06;;;;;;;;;;;;;;;21.85;56.72;99405.38;5089687;28;19927;-56
2023/04/23 08:51:37;;;;;;;;;;;;;;;22.17;56.74;99400.69;5089479;28;20430;-56
2023/04/23 08:54:04;;;;;;;;;;;;;;;22.60;54.17;99398.53;5077571;28;19920;-56
2023/04/23 08:56:30;;;;;;;;;;;;;;;22.71;54.83;99398.41;5090027;28;19951;-56
2023/04/23 08:58:57;;;;;;;;;;;;;;;22.58;51.86;99397.84;5088967;28;19974;-56
2023/04/23 09:01:22;;;;;;;;;;;;;;;22.39;52.12;99394.19;5088998;28;19924;-56
2023/04/23 09:03:48;;;;;;;;;;;;;;;22.36;52.03;99395.31;5089509;28;20371;-56
2023/04/23 09:06:13;;;;;;;;;;;;;;;22.82;50.86;99387.44;5088826;28;20512;-56
2023/04/23 09:08:39;;;;;;;;;;;;;;;22.97;49.74;99385.13;5089753;28;19954;-55
2023/04/23 09:11:04;;;;;;;;;;;;;;;23.18;49.51;99378.56;5091865;28;19916;-56
2023/04/23 09:13:30;;;;;;;;;;;;;;;23.63;47.30;99372.50;5089015;28;19916;-56
2023/04/23 09:15:56;;;;;;;;;;;;;;;24.04;47.12;99372.06;5089535;28;19916;-56
2023/04/23 09:18:21;;;;;;;;;;;;;;;24.11;46.84;99368.63;5088852;28;19920;-56
2023/04/23 09:20:48;;;;;;;;;;;;;;;23.83;45.29;99372.28;5092305;28;19920;-56
2023/04/23 09:23:14;;;;;;;;;;;;;;;24.00;45.62;99366.09;5091610;28;20665;-56
2023/04/23 09:25:39;;;;;;;;;;;;;;;24.08;46.22;99362.63;5092024;28;19919;-56
2023/04/23 09:28:06;;;;;;;;;;;;;;;24.00;47.31;99366.09;5092049;28;19923;-56
2023/04/23 09:30:37;;;;;;;;;;;;;;;24.37;46.38;99356.03;5091049;28;19916;-56
2023/04/23 09:33:03;;;;;;;;;;;;;;;23.93;45.92;99355.94;5092171;28;20561;-56
2023/04/23 09:35:31;;;;;;;;;;;;;;;23.57;47.02;99356.81;5091698;28;19922;-56
2023/04/23 09:37:57;;;;;;;;;;;;;;;23.20;45.42;99357.56;5092676;28;20356;-56
2023/04/23 09:40:22;;;;;;;;;;;;;;;23.65;45.84;99343.34;5095170;28;20018;-56
2023/04/23 09:42:49;;;;;;;;;;;;;;;24.09;45.75;99338.03;5091857;28;19922;-56
2023/04/23 09:45:14;;;;;;;;;;;;;;;24.63;43.17;99342.53;5092854;28;20040;-56
2023/04/23 09:47:46;;;;;;;;;;;;;;;23.84;41.78;99346.81;5091762;28;20362;-56
2023/04/23 09:50:12;;;;;;;;;;;;;;;23.41;43.20;99333.84;5092748;28;19942;-56
2023/04/23 09:52:37;;;;;;;;;;;;;;;22.92;43.95;99334.03;5092575;28;19930;-56
2023/04/23 09:55:06;;;;;;;;;;;;;;;22.61;45.67;99324.34;5091452;28;19947;-56
2023/04/23 09:57:36;;;;;;;;;;;;;;;22.27;45.30;99333.84;5092424;28;19920;-56
2023/04/23 10:00:11;;;;;;;;;;;;;;;22.22;44.52;99330.69;5092135;28;19966;-56
2023/04/23 10:02:36;;;;;;;;;;;;;;;22.60;45.31;99322.63;5073115;28;20010;-56
2023/04/23 10:05:12;;;;;;;;;;;;;;;23.04;43.66;99322.03;5092188;28;20007;-56
2023/04/23 10:07:38;;;;;;;;;;;;;;;23.93;42.20;99320.63;5091919;28;19920;-56
2023/04/23 10:10:04;;;;;;;;;;;;;;;23.63;44.17;99319.06;5073888;28;19916;-56
2023/04/23 10:12:29;;;;;;;;;;;;;;;23.72;43.20;99317.31;5091354;28;20010;-56
2023/04/23 10:14:56;;;;;;;;;;;;;;;23.77;43.07;99310.44;5092058;28;20264;-56
2023/04/23 10:17:21;;;;;;;;;;;;;;;23.85;43.62;99305.09;5092212;28;19927;-56
2023/04/23 10:19:47;;;;;;;;;;;;;;;23.96;43.95;99304.03;5090891;28;19916;-56
2023/04/23 10:22:15;;;;;;;;;;;;;;;23.66;42.74;99309.75;5088797;28;19926;-56
2023/04/23 10:24:41;;;;;;;;;;;;;;;23.38;44.35;99309.72;5091117;28;19916;-56
2023/04/23 10:27:10;;;;;;;;;;;;;;;23.44;43.86;99300.97;5091034;28;20330;-56
2023/04/23 10:29:35;;;;;;;;;;;;;;;24.13;44.63;99298.69;5089513;28;19999;-56
2023/04/23 10:32:02;;;;;;;;;;;;;;;24.48;43.01;99289.72;5078447;28;20028;-56
2023/04/23 10:34:28;;;;;;;;;;;;;;;24.63;42.07;99296.28;5070059;28;19952;-56
2023/04/23 10:36:54;;;;;;;;;;;;;;;24.67;41.85;99286.81;5076526;28;20421;-56
2023/04/23 10:39:20;;;;;;;;;;;;;;;24.62;43.02;99286.44;5090297;28;20033;-56
2023/04/23 10:41:47;;;;;;;;;;;;;;;24.83;41.81;99272.53;5090548;28;19912;-56
2023/04/23 10:44:15;;;;;;;;;;;;;;;24.97;40.73;99275.56;5090543;28;19916;-56
2023/04/23 10:46:49;;;;;;;;;;;;;;;25.26;40.02;99270.63;5092083;28;19963;-56
2023/04/23 10:49:15;;;;;;;;;;;;;;;25.28;39.75;99273.19;5093125;28;19962;-56
2023/04/23 10:51:43;;;;;;;;;;;;;;;25.58;38.65;99259.97;5091502;28;19923;-56
2023/04/23 10:54:11;;;;;;;;;;;;;;;26.17;39.15;99258.16;5090473;28;19916;-56
2023/04/23 10:56:37;;;;;;;;;;;;;;;25.96;37.08;99251.25;5091376;28;20383;-58
2023/04/23 10:59:05;;;;;;;;;;;;;;;26.43;39.09;99250.72;5091420;28;19969;-56
2023/04/23 11:01:30;;;;;;;;;;;;;;;26.51;37.78;99248.00;5091568;28;20337;-56
2023/04/23 11:03:55;;;;;;;;;;;;;;;26.18;37.52;99246.25;5090323;28;19928;-55
2023/04/23 11:06:42;;;;;;;;;;;;;;;26.09;37.26;99236.34;5093796;28;19951;-55
2023/04/23 11:09:26;;;;;;;;;;;;;;;26.32;38.16;99242.88;5089704;28;20367;-56
2023/04/23 11:11:53;;;;;;;;;;;;;;;26.90;37.21;99222.63;5091415;28;19916;-56
2023/04/23 11:14:18;;;;;;;;;;;;;;;27.28;36.82;99215.59;5090317;28;19950;-56
2023/04/23 11:16:43;;;;;;;;;;;;;;;26.78;36.00;99217.69;5090725;28;19991;-55
2023/04/23 11:19:11;;;;;;;;;;;;;;;25.91;37.88;99218.19;5089490;28;19920;-55
2023/04/23 11:21:56;;;;;;;;;;;;;;;25.86;38.32;99211.56;5089839;28;19986;-55
2023/04/23 11:24:22;;;;;;;;;;;;;;;25.43;38.61;99198.97;5090105;28;19912;-55
2023/04/23 11:26:50;;;;;;;;;;;;;;;25.61;39.63;99205.16;5090177;28;19920;-56
2023/04/23 11:29:16;;;;;;;;;;;;;;;26.06;38.96;99195.78;5089502;28;19920;-57
2023/04/23 11:31:42;;;;;;;;;;;;;;;26.34;37.19;99199.91;5090446;28;19939;-57
2023/04/23 11:34:08;;;;;;;;;;;;;;;25.78;38.17;99190.56;5093389;28;20409;-57
2023/04/23 11:36:34;;;;;;;;;;;;;;;26.19;36.62;99198.88;5089892;28;19923;-57
2023/04/23 11:39:02;;;;;;;;;;;;;;;26.15;36.32;99186.59;5090415;28;19927;-57
2023/04/23 11:41:29;;;;;;;;;;;;;;;25.86;36.77;99195.19;5089634;28;19948;-57
2023/04/23 11:43:55;;;;;;;;;;;;;;;25.64;38.46;99177.59;5089733;28;20037;-57
2023/04/23 11:46:20;;;;;;;;;;;;;;;26.52;38.37;99178.78;5089965;28;19920;-57
2023/04/23 11:48:47;;;;;;;;;;;;;;;27.19;36.47;99172.91;5089225;28;20027;-57
2023/04/23 11:51:12;;;;;;;;;;;;;;;27.19;35.47;99167.44;5090214;28;19920;-57
2023/04/23 11:53:43;;;;;;;;;;;;;;;26.84;37.09;99165.13;5090197;28;20390;-57
2023/04/23 11:56:09;;;;;;;;;;;;;;;26.86;37.84;99165.81;5086036;28;19912;-57
2023/04/23 11:58:34;;;;;;;;;;;;;;;27.55;36.64;99154.19;5089563;28;19947;-58
2023/04/23 12:01:01;;;;;;;;;;;;;;;27.88;35.56;99150.25;5090025;28;20022;-58
2023/04/23 12:03:27;;;;;;;;;;;;;;;27.37;36.61;99138.06;5075100;28;19916;-59
2023/04/23 12:05:54;;;;;;;;;;;;;;;26.79;36.14;99143.81;5085104;28;19920;-58
2023/04/23 12:08:20;;;;;;;;;;;;;;;26.52;36.32;99146.91;5089300;28;19920;-58
2023/04/23 12:10:49;;;;;;;;;;;;;;;26.61;37.12;99134.09;5091299;28;20441;-60
2023/04/23 12:13:16;;;;;;;;;;;;;;;27.45;35.44;99135.28;5090362;28;20275;-60
2023/04/23 12:15:45;;;;;;;;;;;;;;;26.88;34.73;99136.47;5077470;28;20360;-60
2023/04/23 12:18:10;;;;;;;;;;;;;;;27.25;36.02;99114.00;5087078;28;19962;-60
2023/04/23 12:20:36;;;;;;;;;;;;;;;26.73;35.89;99084.50;5090937;28;19924;-60
2023/04/23 12:23:05;;;;;;;;;;;;;;;26.87;35.01;99108.31;5091222;28;20018;-60
2023/04/23 12:25:31;;;;;;;;;;;;;;;27.32;35.25;99096.75;5072699;28;19916;-60
2023/04/23 12:28:00;;;;;;;;;;;;;;;26.90;35.04;99101.69;5090963;28;19919;-60
2023/04/23 12:30:28;;;;;;;;;;;;;;;26.86;35.53;99095.72;5091727;28;20031;-60
2023/04/23 12:33:00;;;;;;;;;;;;;;;26.67;35.28;99103.44;5090292;28;19916;-60
2023/04/23 12:35:49;;;;;;;;;;;;;;;27.41;36.81;99092.97;5091115;28;20422;-60
2023/04/23 12:38:25;;;;;;;;;;;;;;;27.41;34.39;99092.13;5090437;28;20003;-60